This is the latest recevied weather packets stored in our database for station/object PP5ABU-13. If no packets are shown the sender has not sent any weather packets the latest 1 day(s).
| Time | Temp. | Humidity | Pressure | Rain* | Wind** | Luminosity | Snow |
|---|---|---|---|---|---|---|---|
| 1778089504 | 27.78° C | 74% | 1013.9 hPa | 0 mm | - | - | - |
| 1778087704 | 27.78° C | 74% | 1014 hPa | 0 mm | - | - | - |
| 1778083204 | 27.78° C | 74% | 1015.1 hPa | 0 mm | - | - | - |
| 1778081404 | 27.78° C | 75% | 1015.8 hPa | 0 mm | - | - | - |
| 1778068804 | 22.22° C | 99% | 1017.7 hPa | 0 mm | - | - | - |
| 1778067004 | 21.67° C | 99% | 1017.4 hPa | 0 mm | - | - | - |
| 1778062504 | 20.56° C | 99% | 1016.6 hPa | 0 mm | - | - | - |
| 1778061605 | 20.56° C | 99% | 1016.4 hPa | 0 mm | - | - | - |
| 1778060704 | 20.56° C | 99% | 1016.3 hPa | 0 mm | - | - | - |
| 1778058004 | 21.11° C | 99% | 1016 hPa | 0 mm | - | - | - |
| 1778055305 | 21.11° C | 99% | 1015.8 hPa | 0 mm | - | - | - |
| 1778053504 | 21.11° C | 99% | 1015.9 hPa | 0 mm | - | - | - |
| 1778051705 | 21.11° C | 99% | 1015.9 hPa | 0 mm | - | - | - |
| 1778049904 | 20.56° C | 99% | 1016.3 hPa | 0 mm | - | - | - |
| 1778049004 | 20.56° C | 99% | 1016.1 hPa | 0 mm | - | - | - |
| 1778048104 | 21.11° C | 99% | 1015.9 hPa | 0 mm | - | - | - |
| 1778039104 | 21.67° C | 99% | 1015.9 hPa | 0 mm | - | - | - |
| 1778037304 | 21.67° C | 99% | 1016.3 hPa | 0 mm | - | - | - |
| 1778035504 | 21.67° C | 99% | 1016.2 hPa | 0 mm | - | - | - |
| 1778034605 | 22.22° C | 99% | 1016.2 hPa | 0 mm | - | - | - |
| 1778028304 | 22.22° C | 99% | 1016.5 hPa | 0 mm | - | - | - |
| 1778026504 | 22.22° C | 99% | 1016.3 hPa | 0 mm | - | - | - |
| 1778020205 | 22.78° C | 91% | 1015.7 hPa | 0 mm | - | - | - |
| 1778017505 | 23.33° C | 87% | 1015.5 hPa | 0 mm | - | - | - |
| 1778015705 | 23.89° C | 84% | 1015.3 hPa | 0 mm | - | - | - |
* Rain latest hour (hover to see other rain measurements)
** Current wind speed in m/s (hover to see current wind gust speed)